CRA017 MROC-MPTO
Flight info
| Callsign | CRA017 |
|---|---|
| Flight time | 0h 58m |
| Altitude | 30000 |
| Route | TEJA4M ISEBA PUDOS VUMA2A |
| Aircraft | PMDG/M-V/N |
Departure
| Time | 2026-05-06 02:38 |
|---|---|
| Airport | Juan Santamaría International Airport (MROC) |
Arrival
| Time | 2026-05-06 03:37 |
|---|---|
| Airport | Tocumen International Airport (MPTO) |
| Time | Latitude | Longitude | Altitude | Speed | Heading |
|---|---|---|---|---|---|
| 2026-05-06 01:12 | 9.99686 | -84.20542 | 3029 ft | 0 kts | 339° |
| 2026-05-06 02:29 | 9.99674 | -84.20538 | 3029 ft | 3 kts | 341° |
| 2026-05-06 02:29 | 9.99654 | -84.20532 | 3029 ft | 3 kts | 349° |
| 2026-05-06 02:29 | 9.99634 | -84.20530 | 3029 ft | 3 kts | 9° |
| 2026-05-06 02:30 | 9.99619 | -84.20536 | 3029 ft | 2 kts | 58° |
| 2026-05-06 02:30 | 9.99616 | -84.20541 | 3029 ft | 0 kts | 69° |
| 2026-05-06 02:33 | 9.99616 | -84.20540 | 3029 ft | 0 kts | 69° |
| 2026-05-06 02:33 | 9.99632 | -84.20496 | 3029 ft | 4 kts | 69° |
| 2026-05-06 02:34 | 9.99643 | -84.20468 | 3029 ft | 4 kts | 69° |
| 2026-05-06 02:34 | 9.99654 | -84.20438 | 3029 ft | 5 kts | 69° |
| 2026-05-06 02:34 | 9.99667 | -84.20405 | 3029 ft | 5 kts | 69° |
| 2026-05-06 02:34 | 9.99679 | -84.20370 | 3029 ft | 6 kts | 70° |
| 2026-05-06 02:35 | 9.99693 | -84.20332 | 3029 ft | 6 kts | 70° |
| 2026-05-06 02:35 | 9.99708 | -84.20291 | 3029 ft | 6 kts | 70° |
| 2026-05-06 02:35 | 9.99724 | -84.20247 | 3029 ft | 7 kts | 69° |
| 2026-05-06 02:35 | 9.99741 | -84.20202 | 3029 ft | 7 kts | 69° |
| 2026-05-06 02:36 | 9.99759 | -84.20156 | 3029 ft | 7 kts | 69° |
| 2026-05-06 02:36 | 9.99776 | -84.20111 | 3029 ft | 7 kts | 70° |
| 2026-05-06 02:36 | 9.99791 | -84.20067 | 3029 ft | 6 kts | 73° |
| 2026-05-06 02:36 | 9.99788 | -84.20024 | 3029 ft | 6 kts | 122° |
| 2026-05-06 02:37 | 9.99752 | -84.20004 | 3029 ft | 6 kts | 180° |
| 2026-05-06 02:37 | 9.99717 | -84.20024 | 3029 ft | 6 kts | 236° |
| 2026-05-06 02:37 | 9.99700 | -84.20061 | 3029 ft | 6 kts | 249° |
| 2026-05-06 02:37 | 9.99674 | -84.20128 | 3029 ft | 36 kts | 249° |
| 2026-05-06 02:38 | 9.99460 | -84.20703 | 3029 ft | 134 kts | 249° |
| 2026-05-06 02:38 | 9.99045 | -84.21827 | 3221 ft | 197 kts | 249° |
| 2026-05-06 02:38 | 9.98526 | -84.23166 | 4326 ft | 202 kts | 248° |
| 2026-05-06 02:38 | 9.98026 | -84.24450 | 5671 ft | 193 kts | 248° |
| 2026-05-06 02:39 | 9.97489 | -84.25737 | 6354 ft | 210 kts | 242° |
| 2026-05-06 02:39 | 9.96433 | -84.26883 | 6688 ft | 239 kts | 213° |
| 2026-05-06 02:39 | 9.94804 | -84.27441 | 7211 ft | 256 kts | 185° |
| 2026-05-06 02:39 | 9.93039 | -84.27165 | 8138 ft | 256 kts | 160° |
| 2026-05-06 02:40 | 9.91376 | -84.26546 | 8972 ft | 260 kts | 163° |
| 2026-05-06 02:40 | 9.89615 | -84.26052 | 9784 ft | 264 kts | 161° |
| 2026-05-06 02:40 | 9.87960 | -84.25252 | 10589 ft | 267 kts | 150° |
| 2026-05-06 02:40 | 9.86347 | -84.24267 | 11392 ft | 271 kts | 147° |
| 2026-05-06 02:41 | 9.84773 | -84.23182 | 12182 ft | 274 kts | 144° |
| 2026-05-06 02:41 | 9.83215 | -84.22059 | 12956 ft | 277 kts | 144° |
| 2026-05-06 02:41 | 9.81735 | -84.20797 | 13699 ft | 281 kts | 130° |
| 2026-05-06 02:41 | 9.80819 | -84.19082 | 14431 ft | 284 kts | 107° |
| 2026-05-06 02:42 | 9.80525 | -84.17102 | 15173 ft | 287 kts | 92° |
| 2026-05-06 02:42 | 9.80546 | -84.15060 | 15895 ft | 290 kts | 87° |
| 2026-05-06 02:42 | 9.80697 | -84.13001 | 16606 ft | 294 kts | 85° |
| 2026-05-06 02:42 | 9.80882 | -84.10930 | 17311 ft | 297 kts | 85° |
| 2026-05-06 02:43 | 9.81060 | -84.08806 | 17952 ft | 308 kts | 85° |
| 2026-05-06 02:43 | 9.81237 | -84.06593 | 18435 ft | 327 kts | 85° |
| 2026-05-06 02:43 | 9.81424 | -84.04191 | 18779 ft | 350 kts | 85° |
| 2026-05-06 02:43 | 9.81619 | -84.01647 | 19113 ft | 370 kts | 85° |
| 2026-05-06 02:44 | 9.81822 | -83.99005 | 19727 ft | 381 kts | 85° |
| 2026-05-06 02:44 | 9.82028 | -83.96315 | 20522 ft | 385 kts | 85° |
| 2026-05-06 02:44 | 9.82281 | -83.93593 | 21301 ft | 390 kts | 83° |
| 2026-05-06 02:44 | 9.82671 | -83.90849 | 22050 ft | 394 kts | 81° |
| 2026-05-06 02:45 | 9.83127 | -83.88098 | 22768 ft | 399 kts | 80° |
| 2026-05-06 02:45 | 9.83592 | -83.85299 | 23457 ft | 403 kts | 81° |
| 2026-05-06 02:45 | 9.84047 | -83.82477 | 24121 ft | 408 kts | 81° |
| 2026-05-06 02:45 | 9.84493 | -83.79666 | 24753 ft | 412 kts | 81° |
| 2026-05-06 02:46 | 9.84945 | -83.76782 | 25367 ft | 416 kts | 81° |
| 2026-05-06 02:46 | 9.85398 | -83.73868 | 25958 ft | 420 kts | 81° |
| 2026-05-06 02:46 | 9.85851 | -83.70935 | 26528 ft | 423 kts | 81° |
| 2026-05-06 02:46 | 9.86307 | -83.67973 | 27117 ft | 426 kts | 81° |
| 2026-05-06 02:47 | 9.86761 | -83.65020 | 27851 ft | 423 kts | 81° |
| 2026-05-06 02:47 | 9.87214 | -83.62074 | 28593 ft | 421 kts | 81° |
| 2026-05-06 02:47 | 9.87668 | -83.59145 | 29256 ft | 420 kts | 81° |
| 2026-05-06 02:47 | 9.88124 | -83.56208 | 29750 ft | 423 kts | 81° |
| 2026-05-06 02:48 | 9.88579 | -83.53257 | 29966 ft | 425 kts | 81° |
| 2026-05-06 02:48 | 9.89481 | -83.47392 | 30000 ft | 422 kts | 81° |
| 2026-05-06 02:49 | 9.90379 | -83.41533 | 30006 ft | 420 kts | 81° |
| 2026-05-06 02:49 | 9.91275 | -83.35681 | 30006 ft | 420 kts | 81° |
| 2026-05-06 02:50 | 9.92174 | -83.29850 | 30006 ft | 420 kts | 81° |
| 2026-05-06 02:50 | 9.93068 | -83.23989 | 30006 ft | 420 kts | 81° |
| 2026-05-06 02:51 | 9.93955 | -83.18154 | 30006 ft | 420 kts | 81° |
| 2026-05-06 02:51 | 9.94845 | -83.12290 | 30006 ft | 420 kts | 81° |
| 2026-05-06 02:52 | 9.95715 | -83.06426 | 30002 ft | 420 kts | 84° |
| 2026-05-06 02:52 | 9.95399 | -83.00504 | 30007 ft | 420 kts | 102° |
| 2026-05-06 02:53 | 9.93812 | -82.94839 | 30006 ft | 419 kts | 108° |
| 2026-05-06 02:53 | 9.91969 | -82.89222 | 30006 ft | 419 kts | 108° |
| 2026-05-06 02:54 | 9.90451 | -82.84510 | 30006 ft | 419 kts | 108° |
| 2026-05-06 02:54 | 9.88347 | -82.77986 | 30006 ft | 419 kts | 108° |
| 2026-05-06 02:55 | 9.86828 | -82.73282 | 30006 ft | 419 kts | 108° |
| 2026-05-06 02:55 | 9.85008 | -82.67649 | 30006 ft | 419 kts | 108° |
| 2026-05-06 02:56 | 9.83201 | -82.62056 | 30005 ft | 419 kts | 108° |
| 2026-05-06 02:56 | 9.81385 | -82.56437 | 30006 ft | 419 kts | 108° |
| 2026-05-06 02:57 | 9.79457 | -82.50856 | 30006 ft | 419 kts | 109° |
| 2026-05-06 02:57 | 9.77509 | -82.45282 | 30006 ft | 419 kts | 109° |
| 2026-05-06 02:58 | 9.75566 | -82.39702 | 30006 ft | 419 kts | 109° |
| 2026-05-06 02:58 | 9.73634 | -82.34148 | 30006 ft | 419 kts | 109° |
| 2026-05-06 02:59 | 9.71696 | -82.28574 | 30006 ft | 419 kts | 109° |
| 2026-05-06 02:59 | 9.69763 | -82.23005 | 30006 ft | 419 kts | 109° |
| 2026-05-06 03:00 | 9.67835 | -82.17432 | 30006 ft | 419 kts | 109° |
| 2026-05-06 03:00 | 9.65895 | -82.11841 | 30006 ft | 419 kts | 109° |
| 2026-05-06 03:01 | 9.63968 | -82.06295 | 30006 ft | 419 kts | 109° |
| 2026-05-06 03:01 | 9.62022 | -82.00701 | 30006 ft | 419 kts | 109° |
| 2026-05-06 03:02 | 9.60091 | -81.95154 | 30006 ft | 419 kts | 109° |
| 2026-05-06 03:02 | 9.58157 | -81.89601 | 30006 ft | 419 kts | 109° |
| 2026-05-06 03:03 | 9.56214 | -81.84027 | 30006 ft | 419 kts | 109° |
| 2026-05-06 03:03 | 9.54261 | -81.78427 | 30006 ft | 419 kts | 109° |
| 2026-05-06 03:04 | 9.52329 | -81.72889 | 30006 ft | 419 kts | 109° |
| 2026-05-06 03:04 | 9.50385 | -81.67321 | 30006 ft | 419 kts | 109° |
| 2026-05-06 03:05 | 9.48442 | -81.61758 | 30006 ft | 419 kts | 109° |
| 2026-05-06 03:05 | 9.46506 | -81.56219 | 30006 ft | 419 kts | 109° |
| 2026-05-06 03:06 | 9.44561 | -81.50656 | 30006 ft | 419 kts | 109° |
| 2026-05-06 03:06 | 9.42613 | -81.45090 | 30006 ft | 419 kts | 109° |
| 2026-05-06 03:07 | 9.40672 | -81.39545 | 30006 ft | 419 kts | 109° |
| 2026-05-06 03:07 | 9.38723 | -81.33979 | 30006 ft | 419 kts | 109° |
| 2026-05-06 03:08 | 9.36778 | -81.28416 | 30006 ft | 419 kts | 109° |
| 2026-05-06 03:08 | 9.34837 | -81.22870 | 30006 ft | 419 kts | 109° |
| 2026-05-06 03:09 | 9.32880 | -81.17299 | 30006 ft | 419 kts | 109° |
| 2026-05-06 03:09 | 9.30939 | -81.11776 | 30006 ft | 419 kts | 109° |
| 2026-05-06 03:10 | 9.29001 | -81.06262 | 30006 ft | 418 kts | 109° |
| 2026-05-06 03:10 | 9.27036 | -81.00675 | 30006 ft | 418 kts | 109° |
| 2026-05-06 03:11 | 9.25132 | -80.95102 | 30006 ft | 418 kts | 109° |
| 2026-05-06 03:11 | 9.23250 | -80.89544 | 29591 ft | 416 kts | 109° |
| 2026-05-06 03:11 | 9.22309 | -80.86767 | 29061 ft | 413 kts | 109° |
| 2026-05-06 03:12 | 9.21400 | -80.84088 | 28529 ft | 410 kts | 109° |
| 2026-05-06 03:12 | 9.20460 | -80.81318 | 27978 ft | 407 kts | 109° |
| 2026-05-06 03:12 | 9.19542 | -80.78616 | 27442 ft | 404 kts | 109° |
| 2026-05-06 03:12 | 9.18642 | -80.75964 | 26916 ft | 401 kts | 109° |
| 2026-05-06 03:13 | 9.17725 | -80.73265 | 26380 ft | 398 kts | 109° |
| 2026-05-06 03:13 | 9.16840 | -80.70658 | 25861 ft | 395 kts | 109° |
| 2026-05-06 03:13 | 9.15967 | -80.68060 | 25343 ft | 392 kts | 109° |
| 2026-05-06 03:13 | 9.15075 | -80.65418 | 24816 ft | 388 kts | 109° |
| 2026-05-06 03:14 | 9.14201 | -80.62841 | 24299 ft | 386 kts | 109° |
| 2026-05-06 03:14 | 9.13341 | -80.60309 | 23791 ft | 383 kts | 109° |
| 2026-05-06 03:14 | 9.12481 | -80.57779 | 23282 ft | 380 kts | 109° |
| 2026-05-06 03:14 | 9.11628 | -80.55271 | 22777 ft | 377 kts | 109° |
| 2026-05-06 03:15 | 9.10774 | -80.52763 | 22270 ft | 374 kts | 109° |
| 2026-05-06 03:15 | 9.09938 | -80.50308 | 21774 ft | 372 kts | 109° |
| 2026-05-06 03:15 | 9.09088 | -80.47812 | 21269 ft | 369 kts | 109° |
| 2026-05-06 03:15 | 9.08265 | -80.45396 | 20777 ft | 366 kts | 109° |
| 2026-05-06 03:16 | 9.07438 | -80.42969 | 20364 ft | 361 kts | 109° |
| 2026-05-06 03:16 | 9.06635 | -80.40609 | 20302 ft | 346 kts | 109° |
| 2026-05-06 03:16 | 9.05987 | -80.38322 | 20106 ft | 337 kts | 103° |
| 2026-05-06 03:16 | 9.05514 | -80.35998 | 19666 ft | 335 kts | 101° |
| 2026-05-06 03:17 | 9.05097 | -80.33672 | 19224 ft | 334 kts | 100° |
| 2026-05-06 03:17 | 9.04681 | -80.31373 | 18786 ft | 332 kts | 100° |
| 2026-05-06 03:17 | 9.04261 | -80.29082 | 18350 ft | 330 kts | 101° |
| 2026-05-06 03:17 | 9.03841 | -80.26815 | 17915 ft | 329 kts | 101° |
| 2026-05-06 03:18 | 9.03418 | -80.24544 | 17478 ft | 327 kts | 101° |
| 2026-05-06 03:18 | 9.02999 | -80.22309 | 17046 ft | 325 kts | 101° |
| 2026-05-06 03:18 | 9.02576 | -80.20057 | 16608 ft | 324 kts | 101° |
| 2026-05-06 03:18 | 9.02157 | -80.17825 | 16170 ft | 322 kts | 101° |
| 2026-05-06 03:19 | 9.01739 | -80.15606 | 15730 ft | 320 kts | 101° |
| 2026-05-06 03:19 | 9.01327 | -80.13401 | 15290 ft | 319 kts | 100° |
| 2026-05-06 03:19 | 9.00917 | -80.11190 | 14847 ft | 317 kts | 101° |
| 2026-05-06 03:19 | 9.00514 | -80.09032 | 14410 ft | 315 kts | 101° |
| 2026-05-06 03:20 | 8.99696 | -80.04685 | 13518 ft | 312 kts | 101° |
| 2026-05-06 03:20 | 8.99291 | -80.02537 | 13072 ft | 310 kts | 101° |
| 2026-05-06 03:20 | 8.98886 | -80.00397 | 12625 ft | 309 kts | 101° |
| 2026-05-06 03:21 | 8.98489 | -79.98297 | 12182 ft | 307 kts | 101° |
| 2026-05-06 03:21 | 8.98085 | -79.96161 | 11727 ft | 305 kts | 101° |
| 2026-05-06 03:21 | 8.97691 | -79.94076 | 11279 ft | 304 kts | 101° |
| 2026-05-06 03:21 | 8.97107 | -79.92047 | 10819 ft | 302 kts | 114° |
| 2026-05-06 03:22 | 8.96024 | -79.90238 | 10381 ft | 300 kts | 124° |
| 2026-05-06 03:22 | 8.94818 | -79.88539 | 10031 ft | 294 kts | 126° |
| 2026-05-06 03:22 | 8.93643 | -79.86902 | 9976 ft | 279 kts | 126° |
| 2026-05-06 03:22 | 8.92523 | -79.85342 | 9786 ft | 269 kts | 126° |
| 2026-05-06 03:23 | 8.91450 | -79.83846 | 9708 ft | 256 kts | 126° |
| 2026-05-06 03:23 | 8.90392 | -79.82371 | 9666 ft | 263 kts | 126° |
| 2026-05-06 03:23 | 8.89297 | -79.80844 | 9421 ft | 270 kts | 126° |
| 2026-05-06 03:23 | 8.88204 | -79.79320 | 9150 ft | 268 kts | 126° |
| 2026-05-06 03:24 | 8.87104 | -79.77785 | 8692 ft | 270 kts | 126° |
| 2026-05-06 03:24 | 8.86002 | -79.76247 | 8275 ft | 270 kts | 126° |
| 2026-05-06 03:24 | 8.84905 | -79.74715 | 7887 ft | 269 kts | 126° |
| 2026-05-06 03:24 | 8.83816 | -79.73195 | 7487 ft | 269 kts | 126° |
| 2026-05-06 03:25 | 8.82722 | -79.71667 | 7211 ft | 266 kts | 126° |
| 2026-05-06 03:25 | 8.81631 | -79.70142 | 7069 ft | 265 kts | 126° |
| 2026-05-06 03:25 | 8.80553 | -79.68637 | 6962 ft | 265 kts | 126° |
| 2026-05-06 03:25 | 8.79473 | -79.67127 | 6900 ft | 265 kts | 126° |
| 2026-05-06 03:26 | 8.78397 | -79.65623 | 6885 ft | 264 kts | 126° |
| 2026-05-06 03:26 | 8.77339 | -79.64142 | 6870 ft | 260 kts | 126° |
| 2026-05-06 03:26 | 8.76304 | -79.62694 | 6786 ft | 247 kts | 126° |
| 2026-05-06 03:26 | 8.75335 | -79.61339 | 6716 ft | 227 kts | 126° |
| 2026-05-06 03:27 | 8.74456 | -79.60095 | 6588 ft | 210 kts | 124° |
| 2026-05-06 03:27 | 8.73718 | -79.58884 | 6463 ft | 195 kts | 120° |
| 2026-05-06 03:27 | 8.73164 | -79.57671 | 6228 ft | 188 kts | 104° |
| 2026-05-06 03:27 | 8.73326 | -79.56403 | 5982 ft | 184 kts | 65° |
| 2026-05-06 03:28 | 8.74229 | -79.55546 | 5963 ft | 177 kts | 29° |
| 2026-05-06 03:28 | 8.75347 | -79.55061 | 5906 ft | 174 kts | 21° |
| 2026-05-06 03:28 | 8.76468 | -79.54645 | 5574 ft | 176 kts | 20° |
| 2026-05-06 03:28 | 8.77629 | -79.54223 | 5282 ft | 172 kts | 20° |
| 2026-05-06 03:29 | 8.78739 | -79.53819 | 5078 ft | 167 kts | 20° |
| 2026-05-06 03:29 | 8.79794 | -79.53336 | 4886 ft | 166 kts | 26° |
| 2026-05-06 03:29 | 8.80811 | -79.52819 | 4699 ft | 166 kts | 27° |
| 2026-05-06 03:29 | 8.81829 | -79.52266 | 4504 ft | 165 kts | 28° |
| 2026-05-06 03:30 | 8.82832 | -79.51707 | 4310 ft | 165 kts | 29° |
| 2026-05-06 03:30 | 8.83839 | -79.51142 | 4113 ft | 164 kts | 29° |
| 2026-05-06 03:30 | 8.84838 | -79.50578 | 3916 ft | 164 kts | 29° |
| 2026-05-06 03:30 | 8.85829 | -79.50018 | 3740 ft | 159 kts | 29° |
| 2026-05-06 03:31 | 8.86754 | -79.49494 | 3578 ft | 146 kts | 29° |
| 2026-05-06 03:31 | 8.87615 | -79.49005 | 3363 ft | 139 kts | 29° |
| 2026-05-06 03:31 | 8.88439 | -79.48538 | 3183 ft | 135 kts | 29° |
| 2026-05-06 03:31 | 8.89248 | -79.48078 | 3050 ft | 133 kts | 29° |
| 2026-05-06 03:32 | 8.90055 | -79.47620 | 2926 ft | 133 kts | 29° |
| 2026-05-06 03:32 | 8.90858 | -79.47164 | 2880 ft | 133 kts | 29° |
| 2026-05-06 03:32 | 8.91677 | -79.46699 | 2745 ft | 135 kts | 29° |
| 2026-05-06 03:32 | 8.92489 | -79.46238 | 2576 ft | 134 kts | 29° |
| 2026-05-06 03:33 | 8.93300 | -79.45777 | 2412 ft | 133 kts | 29° |
| 2026-05-06 03:33 | 8.94103 | -79.45321 | 2255 ft | 133 kts | 29° |
| 2026-05-06 03:33 | 8.94911 | -79.44861 | 2099 ft | 132 kts | 29° |
| 2026-05-06 03:33 | 8.95705 | -79.44410 | 1978 ft | 131 kts | 29° |
| 2026-05-06 03:34 | 8.96505 | -79.43955 | 1834 ft | 132 kts | 29° |
| 2026-05-06 03:34 | 8.97315 | -79.43495 | 1654 ft | 132 kts | 29° |
| 2026-05-06 03:34 | 8.98102 | -79.43048 | 1489 ft | 131 kts | 29° |
| 2026-05-06 03:34 | 8.98894 | -79.42597 | 1334 ft | 131 kts | 29° |
| 2026-05-06 03:35 | 8.99697 | -79.42141 | 1178 ft | 130 kts | 29° |
| 2026-05-06 03:35 | 9.00478 | -79.41697 | 1029 ft | 130 kts | 29° |
| 2026-05-06 03:35 | 9.01262 | -79.41252 | 877 ft | 130 kts | 29° |
| 2026-05-06 03:35 | 9.02051 | -79.40803 | 725 ft | 130 kts | 29° |
| 2026-05-06 03:36 | 9.02841 | -79.40355 | 563 ft | 129 kts | 29° |
| 2026-05-06 03:36 | 9.03615 | -79.39910 | 422 ft | 127 kts | 30° |
| 2026-05-06 03:36 | 9.04376 | -79.39468 | 260 ft | 127 kts | 30° |
| 2026-05-06 03:36 | 9.05149 | -79.39023 | 145 ft | 125 kts | 30° |
| 2026-05-06 03:37 | 9.05763 | -79.38681 | 143 ft | 71 kts | 28° |
| 2026-05-06 03:37 | 9.06007 | -79.38548 | 143 ft | 7 kts | 28° |
| 2026-05-06 03:37 | 9.06036 | -79.38532 | 143 ft | 11 kts | 28° |
| 2026-05-06 03:37 | 9.06133 | -79.38478 | 143 ft | 19 kts | 28° |
| 2026-05-06 03:38 | 9.06189 | -79.38447 | 143 ft | 18 kts | 28° |
| 2026-05-06 03:38 | 9.06218 | -79.38431 | 143 ft | 18 kts | 28° |
| 2026-05-06 03:38 | 9.06323 | -79.38372 | 143 ft | 17 kts | 29° |
| 2026-05-06 03:39 | 9.06400 | -79.38329 | 143 ft | 9 kts | 29° |
| 2026-05-06 03:39 | 9.06456 | -79.38298 | 143 ft | 9 kts | 28° |
| 2026-05-06 03:39 | 9.06513 | -79.38281 | 143 ft | 9 kts | 3° |
| 2026-05-06 03:39 | 9.06553 | -79.38285 | 143 ft | 8 kts | 346° |
| 2026-05-06 03:40 | 9.06615 | -79.38304 | 143 ft | 5 kts | 338° |
| 2026-05-06 03:40 | 9.06646 | -79.38324 | 143 ft | 5 kts | 315° |
| 2026-05-06 03:40 | 9.06665 | -79.38355 | 143 ft | 5 kts | 291° |
| 2026-05-06 03:40 | 9.06664 | -79.38377 | 143 ft | 5 kts | 242° |
| 2026-05-06 03:41 | 9.06638 | -79.38397 | 143 ft | 5 kts | 207° |
| 2026-05-06 03:41 | 9.06619 | -79.38412 | 143 ft | 3 kts | 247° |
| 2026-05-06 03:41 | 9.06619 | -79.38432 | 143 ft | 3 kts | 277° |
| 2026-05-06 03:41 | 9.06618 | -79.38458 | 143 ft | 3 kts | 274° |
| 2026-05-06 03:42 | 9.06620 | -79.38469 | 143 ft | 2 kts | 286° |
| 2026-05-06 03:42 | 9.06627 | -79.38484 | 143 ft | 2 kts | 295° |
| 2026-05-06 03:42 | 9.06633 | -79.38498 | 143 ft | 2 kts | 296° |
| 2026-05-06 03:42 | 9.06639 | -79.38511 | 143 ft | 2 kts | 295° |
| 2026-05-06 03:43 | 9.06644 | -79.38522 | 143 ft | 2 kts | 296° |
| 2026-05-06 03:43 | 9.06650 | -79.38532 | 143 ft | 1 kts | 298° |
| 2026-05-06 03:43 | 9.06654 | -79.38541 | 143 ft | 1 kts | 297° |
| 2026-05-06 03:43 | 9.06658 | -79.38548 | 143 ft | 1 kts | 297° |
| 2026-05-06 03:44 | 9.06662 | -79.38556 | 143 ft | 3 kts | 296° |
| 2026-05-06 03:44 | 9.06669 | -79.38570 | 143 ft | 0 kts | 297° |
| 2026-05-06 03:44 | 9.06673 | -79.38579 | 143 ft | 4 kts | 297° |
| 2026-05-06 03:45 | 9.06674 | -79.38580 | 143 ft | 0 kts | 297° |